sensor_id;sensor_type;location;lat;lon;timestamp;pressure;altitude;pressure_sealevel;temperature;humidity
5691;BME280;2870;42.680;23.364;2023-06-22T00:01:16;95534.28;;;20.32;92.26
5691;BME280;2870;42.680;23.364;2023-06-22T00:03:43;95523.84;;;20.25;93.54
5691;BME280;2870;42.680;23.364;2023-06-22T00:06:09;95531.03;;;20.26;93.46
5691;BME280;2870;42.680;23.364;2023-06-22T00:08:36;95484.16;;;19.94;93.31
5691;BME280;2870;42.680;23.364;2023-06-22T00:11:04;95532.25;;;20.23;92.51
5691;BME280;2870;42.680;23.364;2023-06-22T00:13:31;95529.88;;;20.07;93.49
5691;BME280;2870;42.680;23.364;2023-06-22T00:15:58;95533.47;;;20.08;93.32
5691;BME280;2870;42.680;23.364;2023-06-22T00:18:25;95531.03;;;20.14;92.43
5691;BME280;2870;42.680;23.364;2023-06-22T00:20:54;95517.13;;;20.08;93.74
5691;BME280;2870;42.680;23.364;2023-06-22T00:23:24;95518.00;;;20.11;94.11
5691;BME280;2870;42.680;23.364;2023-06-22T00:25:51;95522.59;;;20.16;93.22
5691;BME280;2870;42.680;23.364;2023-06-22T00:28:19;95506.50;;;20.21;93.64
5691;BME280;2870;42.680;23.364;2023-06-22T00:30:46;95505.41;;;20.26;93.91
5691;BME280;2870;42.680;23.364;2023-06-22T00:33:13;95500.81;;;20.21;94.66
5691;BME280;2870;42.680;23.364;2023-06-22T00:35:41;95501.00;;;20.01;96.27
5691;BME280;2870;42.680;23.364;2023-06-22T00:38:10;95501.56;;;19.76;97.57
5691;BME280;2870;42.680;23.364;2023-06-22T00:40:37;95508.84;;;19.79;98.19
5691;BME280;2870;42.680;23.364;2023-06-22T00:43:04;95501.69;;;19.78;98.71
5691;BME280;2870;42.680;23.364;2023-06-22T00:45:33;95495.44;;;19.58;99.37
5691;BME280;2870;42.680;23.364;2023-06-22T00:48:01;95491.53;;;19.75;98.80
5691;BME280;2870;42.680;23.364;2023-06-22T00:50:30;95500.22;;;19.89;97.97
5691;BME280;2870;42.680;23.364;2023-06-22T00:53:00;95480.00;;;19.73;98.16
5691;BME280;2870;42.680;23.364;2023-06-22T00:55:33;95516.97;;;19.95;98.28
5691;BME280;2870;42.680;23.364;2023-06-22T00:58:03;95512.88;;;19.86;96.94
5691;BME280;2870;42.680;23.364;2023-06-22T01:00:34;95501.47;;;19.86;97.42
5691;BME280;2870;42.680;23.364;2023-06-22T01:03:02;95504.72;;;19.92;97.13
5691;BME280;2870;42.680;23.364;2023-06-22T01:05:29;95521.06;;;19.92;97.15
5691;BME280;2870;42.680;23.364;2023-06-22T01:08:08;95515.94;;;19.90;97.97
5691;BME280;2870;42.680;23.364;2023-06-22T01:10:41;95509.13;;;19.83;98.67
5691;BME280;2870;42.680;23.364;2023-06-22T01:13:17;95506.44;;;19.85;98.81
5691;BME280;2870;42.680;23.364;2023-06-22T01:15:51;95502.44;;;19.79;98.36
5691;BME280;2870;42.680;23.364;2023-06-22T01:18:22;95511.34;;;19.85;98.49
5691;BME280;2870;42.680;23.364;2023-06-22T01:20:52;95518.31;;;19.94;98.55
5691;BME280;2870;42.680;23.364;2023-06-22T01:23:26;95517.69;;;19.95;99.06
5691;BME280;2870;42.680;23.364;2023-06-22T01:26:04;95516.97;;;19.62;100.00
5691;BME280;2870;42.680;23.364;2023-06-22T01:28:42;95503.69;;;19.54;100.00
5691;BME280;2870;42.680;23.364;2023-06-22T01:31:10;95518.66;;;19.55;100.00
5691;BME280;2870;42.680;23.364;2023-06-22T01:33:41;95519.38;;;19.55;100.00
5691;BME280;2870;42.680;23.364;2023-06-22T01:36:10;95526.56;;;19.56;98.17
5691;BME280;2870;42.680;23.364;2023-06-22T01:38:39;95521.84;;;19.49;99.14
5691;BME280;2870;42.680;23.364;2023-06-22T01:41:06;95527.25;;;19.45;99.28
5691;BME280;2870;42.680;23.364;2023-06-22T01:43:33;95522.19;;;19.65;97.80
5691;BME280;2870;42.680;23.364;2023-06-22T01:46:03;95522.81;;;19.64;98.45
5691;BME280;2870;42.680;23.364;2023-06-22T01:48:30;95530.53;;;19.51;99.53
5691;BME280;2870;42.680;23.364;2023-06-22T01:50:58;95527.69;;;19.51;98.18
5691;BME280;2870;42.680;23.364;2023-06-22T01:53:25;95526.31;;;19.52;98.13
5691;BME280;2870;42.680;23.364;2023-06-22T01:55:52;95532.47;;;19.49;99.60
5691;BME280;2870;42.680;23.364;2023-06-22T01:58:20;95532.19;;;19.45;99.72
5691;BME280;2870;42.680;23.364;2023-06-22T02:04:06;95540.81;;;19.35;99.19
5691;BME280;2870;42.680;23.364;2023-06-22T02:06:36;95539.81;;;19.30;98.84
5691;BME280;2870;42.680;23.364;2023-06-22T02:09:08;95542.66;;;19.30;98.25
5691;BME280;2870;42.680;23.364;2023-06-22T02:11:36;95541.00;;;19.27;99.49
5691;BME280;2870;42.680;23.364;2023-06-22T02:14:05;95543.25;;;19.29;99.99
5691;BME280;2870;42.680;23.364;2023-06-22T02:16:33;95524.84;;;19.30;98.97
5691;BME280;2870;42.680;23.364;2023-06-22T02:19:02;95532.13;;;19.33;99.40
5691;BME280;2870;42.680;23.364;2023-06-22T02:21:29;95527.06;;;19.31;100.00
5691;BME280;2870;42.680;23.364;2023-06-22T02:23:56;95527.69;;;19.30;100.00
5691;BME280;2870;42.680;23.364;2023-06-22T02:26:24;95537.56;;;19.29;100.00
5691;BME280;2870;42.680;23.364;2023-06-22T02:28:51;95539.53;;;19.26;100.00
5691;BME280;2870;42.680;23.364;2023-06-22T02:31:18;95532.63;;;19.29;100.00
5691;BME280;2870;42.680;23.364;2023-06-22T02:33:45;95527.69;;;19.30;100.00
5691;BME280;2870;42.680;23.364;2023-06-22T02:36:13;95519.41;;;19.13;100.00
5691;BME280;2870;42.680;23.364;2023-06-22T02:38:41;95524.44;;;19.24;100.00
5691;BME280;2870;42.680;23.364;2023-06-22T02:41:11;95523.41;;;19.19;100.00
5691;BME280;2870;42.680;23.364;2023-06-22T02:43:38;95534.13;;;19.30;100.00
5691;BME280;2870;42.680;23.364;2023-06-22T02:46:05;95531.28;;;19.30;100.00
5691;BME280;2870;42.680;23.364;2023-06-22T02:48:32;95533.09;;;19.26;100.00
5691;BME280;2870;42.680;23.364;2023-06-22T02:50:58;95535.53;;;19.20;99.98
5691;BME280;2870;42.680;23.364;2023-06-22T02:53:27;95547.66;;;19.20;100.00
5691;BME280;2870;42.680;23.364;2023-06-22T02:55:53;95544.19;;;19.22;100.00
5691;BME280;2870;42.680;23.364;2023-06-22T02:58:20;95540.94;;;19.16;100.00
5691;BME280;2870;42.680;23.364;2023-06-22T03:00:47;95536.88;;;19.19;100.00
5691;BME280;2870;42.680;23.364;2023-06-22T03:03:13;95546.16;;;19.19;100.00
5691;BME280;2870;42.680;23.364;2023-06-22T03:05:40;95545.41;;;19.19;100.00
5691;BME280;2870;42.680;23.364;2023-06-22T03:08:07;95540.69;;;19.12;100.00
5691;BME280;2870;42.680;23.364;2023-06-22T03:10:35;95544.59;;;19.06;100.00
5691;BME280;2870;42.680;23.364;2023-06-22T03:13:02;95545.34;;;19.07;100.00
5691;BME280;2870;42.680;23.364;2023-06-22T03:15:29;95554.28;;;19.13;100.00
5691;BME280;2870;42.680;23.364;2023-06-22T03:17:57;95565.16;;;19.17;100.00
5691;BME280;2870;42.680;23.364;2023-06-22T03:20:23;95559.47;;;19.17;100.00
5691;BME280;2870;42.680;23.364;2023-06-22T03:22:52;95567.88;;;19.15;100.00
5691;BME280;2870;42.680;23.364;2023-06-22T03:25:19;95573.44;;;19.13;100.00
5691;BME280;2870;42.680;23.364;2023-06-22T03:27:47;95566.41;;;19.14;100.00
5691;BME280;2870;42.680;23.364;2023-06-22T03:30:14;95579.19;;;19.03;100.00
5691;BME280;2870;42.680;23.364;2023-06-22T03:32:41;95564.88;;;18.91;100.00
5691;BME280;2870;42.680;23.364;2023-06-22T03:35:09;95570.69;;;18.93;100.00
5691;BME280;2870;42.680;23.364;2023-06-22T03:37:38;95574.53;;;19.08;100.00
5691;BME280;2870;42.680;23.364;2023-06-22T03:40:06;95575.63;;;19.24;100.00
5691;BME280;2870;42.680;23.364;2023-06-22T03:42:33;95577.56;;;19.21;100.00
5691;BME280;2870;42.680;23.364;2023-06-22T03:45:04;95585.50;;;19.44;100.00
5691;BME280;2870;42.680;23.364;2023-06-22T03:47:32;95581.50;;;19.16;100.00
5691;BME280;2870;42.680;23.364;2023-06-22T03:49:59;95551.09;;;18.97;100.00
5691;BME280;2870;42.680;23.364;2023-06-22T03:52:25;95582.44;;;19.09;100.00
5691;BME280;2870;42.680;23.364;2023-06-22T03:54:52;95591.66;;;19.19;100.00
5691;BME280;2870;42.680;23.364;2023-06-22T03:57:19;95589.69;;;19.22;100.00
5691;BME280;2870;42.680;23.364;2023-06-22T03:59:46;95595.94;;;19.30;99.56
5691;BME280;2870;42.680;23.364;2023-06-22T04:02:14;95596.69;;;19.52;98.73
5691;BME280;2870;42.680;23.364;2023-06-22T04:04:40;95588.38;;;19.66;97.02
5691;BME280;2870;42.680;23.364;2023-06-22T04:07:07;95574.22;;;19.35;96.71
5691;BME280;2870;42.680;23.364;2023-06-22T04:09:34;95599.72;;;19.44;97.89
5691;BME280;2870;42.680;23.364;2023-06-22T04:12:01;95597.44;;;19.31;97.89
5691;BME280;2870;42.680;23.364;2023-06-22T04:14:28;95584.97;;;19.36;97.02
5691;BME280;2870;42.680;23.364;2023-06-22T04:16:55;95581.78;;;19.42;99.14
5691;BME280;2870;42.680;23.364;2023-06-22T04:19:23;95585.94;;;19.29;97.79
5691;BME280;2870;42.680;23.364;2023-06-22T04:21:50;95585.09;;;19.38;100.00
5691;BME280;2870;42.680;23.364;2023-06-22T04:24:17;95577.13;;;19.46;99.26
5691;BME280;2870;42.680;23.364;2023-06-22T04:26:44;95573.13;;;19.61;97.37
5691;BME280;2870;42.680;23.364;2023-06-22T04:29:12;95558.47;;;19.55;96.75
5691;BME280;2870;42.680;23.364;2023-06-22T04:31:40;95563.13;;;19.60;96.21
5691;BME280;2870;42.680;23.364;2023-06-22T04:34:07;95564.25;;;19.67;96.68
5691;BME280;2870;42.680;23.364;2023-06-22T04:36:37;95562.59;;;19.85;96.25
5691;BME280;2870;42.680;23.364;2023-06-22T04:39:05;95566.28;;;19.76;95.09
5691;BME280;2870;42.680;23.364;2023-06-22T04:41:35;95538.16;;;19.49;94.56
5691;BME280;2870;42.680;23.364;2023-06-22T04:44:09;95558.09;;;20.03;94.56
5691;BME280;2870;42.680;23.364;2023-06-22T04:46:36;95570.38;;;20.18;95.84
5691;BME280;2870;42.680;23.364;2023-06-22T04:49:05;95580.34;;;20.40;93.29
5691;BME280;2870;42.680;23.364;2023-06-22T04:51:41;95567.78;;;20.55;93.97
5691;BME280;2870;42.680;23.364;2023-06-22T04:54:09;95586.38;;;20.68;92.53
5691;BME280;2870;42.680;23.364;2023-06-22T04:56:36;95587.63;;;20.76;90.57
5691;BME280;2870;42.680;23.364;2023-06-22T04:59:06;95590.72;;;20.80;90.42
5691;BME280;2870;42.680;23.364;2023-06-22T05:01:33;95600.66;;;20.91;91.04
5691;BME280;2870;42.680;23.364;2023-06-22T05:04:00;95591.19;;;20.53;90.96
5691;BME280;2870;42.680;23.364;2023-06-22T05:06:29;95600.75;;;20.93;90.49
5691;BME280;2870;42.680;23.364;2023-06-22T05:08:57;95605.75;;;21.16;86.21
5691;BME280;2870;42.680;23.364;2023-06-22T05:11:25;95596.19;;;21.00;86.08
5691;BME280;2870;42.680;23.364;2023-06-22T05:13:52;95590.59;;;21.25;86.77
5691;BME280;2870;42.680;23.364;2023-06-22T05:16:18;95594.31;;;20.92;86.51
5691;BME280;2870;42.680;23.364;2023-06-22T05:18:50;95585.53;;;21.24;86.00
5691;BME280;2870;42.680;23.364;2023-06-22T05:21:17;95592.34;;;21.42;87.00
5691;BME280;2870;42.680;23.364;2023-06-22T05:23:44;95592.31;;;21.54;84.01
5691;BME280;2870;42.680;23.364;2023-06-22T05:26:12;95605.84;;;21.53;84.64
5691;BME280;2870;42.680;23.364;2023-06-22T05:28:39;95603.75;;;21.18;83.21
5691;BME280;2870;42.680;23.364;2023-06-22T05:31:06;95601.03;;;20.97;84.18
5691;BME280;2870;42.680;23.364;2023-06-22T05:33:32;95611.31;;;21.49;83.16
5691;BME280;2870;42.680;23.364;2023-06-22T05:35:59;95605.72;;;22.00;79.39
5691;BME280;2870;42.680;23.364;2023-06-22T05:38:26;95613.75;;;22.15;80.56
5691;BME280;2870;42.680;23.364;2023-06-22T05:40:53;95615.78;;;22.13;81.85
5691;BME280;2870;42.680;23.364;2023-06-22T05:43:21;95614.22;;;22.49;79.35
5691;BME280;2870;42.680;23.364;2023-06-22T05:45:48;95630.28;;;22.42;79.83
5691;BME280;2870;42.680;23.364;2023-06-22T05:48:15;95633.88;;;22.17;79.31
5691;BME280;2870;42.680;23.364;2023-06-22T05:50:42;95597.75;;;22.10;79.04
5691;BME280;2870;42.680;23.364;2023-06-22T05:53:09;95637.03;;;21.98;79.16
5691;BME280;2870;42.680;23.364;2023-06-22T05:55:35;95624.22;;;21.99;78.55
5691;BME280;2870;42.680;23.364;2023-06-22T05:58:02;95625.19;;;22.15;78.20
5691;BME280;2870;42.680;23.364;2023-06-22T06:00:31;95625.31;;;22.43;76.52
5691;BME280;2870;42.680;23.364;2023-06-22T06:02:58;95632.88;;;22.25;76.05
5691;BME280;2870;42.680;23.364;2023-06-22T06:05:28;95617.97;;;22.65;76.58
5691;BME280;2870;42.680;23.364;2023-06-22T06:07:57;95615.72;;;22.89;75.36
5691;BME280;2870;42.680;23.364;2023-06-22T06:10:24;95618.41;;;22.73;76.70
5691;BME280;2870;42.680;23.364;2023-06-22T06:12:50;95616.03;;;22.56;76.52
5691;BME280;2870;42.680;23.364;2023-06-22T06:15:17;95605.88;;;22.53;77.18
5691;BME280;2870;42.680;23.364;2023-06-22T06:17:50;95599.69;;;22.70;76.48
5691;BME280;2870;42.680;23.364;2023-06-22T06:20:19;95613.00;;;23.05;75.35
5691;BME280;2870;42.680;23.364;2023-06-22T06:22:46;95610.06;;;22.78;76.89
5691;BME280;2870;42.680;23.364;2023-06-22T06:25:12;95613.16;;;22.82;77.20
5691;BME280;2870;42.680;23.364;2023-06-22T06:27:42;95602.53;;;23.10;79.13
5691;BME280;2870;42.680;23.364;2023-06-22T06:30:10;95613.97;;;23.51;78.69
5691;BME280;2870;42.680;23.364;2023-06-22T06:32:37;95611.97;;;23.67;78.06
5691;BME280;2870;42.680;23.364;2023-06-22T06:35:07;95604.84;;;23.82;74.73
5691;BME280;2870;42.680;23.364;2023-06-22T06:37:37;95607.09;;;23.84;74.03
5691;BME280;2870;42.680;23.364;2023-06-22T06:40:05;95599.31;;;24.29;71.15
5691;BME280;2870;42.680;23.364;2023-06-22T06:42:35;95607.06;;;24.27;71.37
5691;BME280;2870;42.680;23.364;2023-06-22T06:45:04;95605.59;;;24.55;69.78
5691;BME280;2870;42.680;23.364;2023-06-22T06:47:30;95602.28;;;24.77;69.05
5691;BME280;2870;42.680;23.364;2023-06-22T06:49:57;95597.41;;;24.79;68.76
5691;BME280;2870;42.680;23.364;2023-06-22T06:52:26;95602.97;;;25.07;66.44
5691;BME280;2870;42.680;23.364;2023-06-22T06:54:53;95592.34;;;25.09;67.20
5691;BME280;2870;42.680;23.364;2023-06-22T06:57:20;95584.00;;;25.31;66.51
5691;BME280;2870;42.680;23.364;2023-06-22T06:59:48;95586.88;;;25.31;65.43
5691;BME280;2870;42.680;23.364;2023-06-22T07:02:15;95590.75;;;25.22;70.24
5691;BME280;2870;42.680;23.364;2023-06-22T07:04:42;95588.16;;;25.28;68.51
5691;BME280;2870;42.680;23.364;2023-06-22T07:07:08;95585.28;;;25.28;67.96
5691;BME280;2870;42.680;23.364;2023-06-22T07:09:36;95597.47;;;25.60;66.32
5691;BME280;2870;42.680;23.364;2023-06-22T07:12:04;95593.22;;;25.46;65.24
5691;BME280;2870;42.680;23.364;2023-06-22T07:14:31;95599.16;;;25.34;68.98
5691;BME280;2870;42.680;23.364;2023-06-22T07:16:58;95566.63;;;25.45;67.73
5691;BME280;2870;42.680;23.364;2023-06-22T07:19:25;95599.72;;;25.96;65.17
5691;BME280;2870;42.680;23.364;2023-06-22T07:21:52;95595.75;;;25.37;65.46
5691;BME280;2870;42.680;23.364;2023-06-22T07:24:19;95592.22;;;25.88;65.52
5691;BME280;2870;42.680;23.364;2023-06-22T07:26:48;95589.06;;;26.16;63.33
5691;BME280;2870;42.680;23.364;2023-06-22T07:29:16;95601.81;;;26.47;63.26
5691;BME280;2870;42.680;23.364;2023-06-22T07:31:43;95598.41;;;25.99;62.57
5691;BME280;2870;42.680;23.364;2023-06-22T07:34:09;95596.06;;;26.64;59.83
5691;BME280;2870;42.680;23.364;2023-06-22T07:36:36;95598.53;;;26.54;61.96
5691;BME280;2870;42.680;23.364;2023-06-22T07:39:03;95601.00;;;26.62;61.43
5691;BME280;2870;42.680;23.364;2023-06-22T07:41:30;95604.41;;;26.76;62.33
5691;BME280;2870;42.680;23.364;2023-06-22T07:43:59;95604.47;;;27.34;60.73
5691;BME280;2870;42.680;23.364;2023-06-22T07:46:26;95609.50;;;27.73;57.56
5691;BME280;2870;42.680;23.364;2023-06-22T07:48:55;95598.78;;;27.76;58.28
5691;BME280;2870;42.680;23.364;2023-06-22T07:51:22;95602.38;;;28.18;56.62
5691;BME280;2870;42.680;23.364;2023-06-22T07:53:49;95600.13;;;28.58;55.36
5691;BME280;2870;42.680;23.364;2023-06-22T07:56:15;95597.84;;;29.24;52.84
5691;BME280;2870;42.680;23.364;2023-06-22T07:58:44;95598.03;;;29.30;52.34
5691;BME280;2870;42.680;23.364;2023-06-22T08:01:13;95601.38;;;29.47;51.08
5691;BME280;2870;42.680;23.364;2023-06-22T08:03:40;95598.16;;;29.35;52.73
5691;BME280;2870;42.680;23.364;2023-06-22T08:06:07;95589.00;;;29.68;52.19
5691;BME280;2870;42.680;23.364;2023-06-22T08:08:35;95584.03;;;28.75;51.16
5691;BME280;2870;42.680;23.364;2023-06-22T08:11:03;95586.66;;;28.89;51.05
5691;BME280;2870;42.680;23.364;2023-06-22T08:13:31;95589.91;;;29.25;50.16
5691;BME280;2870;42.680;23.364;2023-06-22T08:15:58;95584.25;;;30.35;48.35
5691;BME280;2870;42.680;23.364;2023-06-22T08:18:26;95579.63;;;30.54;48.48
5691;BME280;2870;42.680;23.364;2023-06-22T08:20:52;95576.78;;;29.72;47.51
5691;BME280;2870;42.680;23.364;2023-06-22T08:23:20;95577.69;;;30.06;49.59
5691;BME280;2870;42.680;23.364;2023-06-22T08:25:46;95571.91;;;30.06;50.95
5691;BME280;2870;42.680;23.364;2023-06-22T08:28:15;95572.75;;;30.39;47.98
5691;BME280;2870;42.680;23.364;2023-06-22T08:30:42;95569.84;;;30.99;47.89
5691;BME280;2870;42.680;23.364;2023-06-22T08:33:09;95559.09;;;31.38;45.60
5691;BME280;2870;42.680;23.364;2023-06-22T08:35:37;95568.03;;;31.16;49.52
5691;BME280;2870;42.680;23.364;2023-06-22T08:38:04;95571.75;;;31.21;49.54
5691;BME280;2870;42.680;23.364;2023-06-22T08:40:31;95577.06;;;30.38;46.71
5691;BME280;2870;42.680;23.364;2023-06-22T08:42:58;95572.28;;;30.19;50.76
5691;BME280;2870;42.680;23.364;2023-06-22T08:45:24;95570.69;;;30.14;48.65
5691;BME280;2870;42.680;23.364;2023-06-22T08:47:52;95579.19;;;30.07;49.18
5691;BME280;2870;42.680;23.364;2023-06-22T08:50:18;95563.72;;;29.69;49.53
5691;BME280;2870;42.680;23.364;2023-06-22T08:52:46;95567.81;;;30.14;50.31
5691;BME280;2870;42.680;23.364;2023-06-22T08:55:14;95576.91;;;30.62;47.58
5691;BME280;2870;42.680;23.364;2023-06-22T08:57:40;95567.28;;;31.16;46.89
5691;BME280;2870;42.680;23.364;2023-06-22T09:00:09;95561.88;;;31.32;46.61
5691;BME280;2870;42.680;23.364;2023-06-22T09:02:42;95558.00;;;31.57;46.63
5691;BME280;2870;42.680;23.364;2023-06-22T09:05:09;95554.97;;;31.87;49.52
5691;BME280;2870;42.680;23.364;2023-06-22T09:07:36;95551.81;;;32.13;47.12
5691;BME280;2870;42.680;23.364;2023-06-22T09:10:05;95554.97;;;31.87;43.77
5691;BME280;2870;42.680;23.364;2023-06-22T09:12:32;95555.41;;;31.72;43.98
5691;BME280;2870;42.680;23.364;2023-06-22T09:15:00;95552.53;;;32.14;45.97
5691;BME280;2870;42.680;23.364;2023-06-22T09:17:28;95554.56;;;32.46;43.93
5691;BME280;2870;42.680;23.364;2023-06-22T09:19:55;95550.59;;;32.73;44.11
5691;BME280;2870;42.680;23.364;2023-06-22T09:22:22;95552.56;;;33.07;43.52
5691;BME280;2870;42.680;23.364;2023-06-22T09:24:48;95548.34;;;32.67;41.95
5691;BME280;2870;42.680;23.364;2023-06-22T09:27:17;95559.09;;;33.07;43.26
5691;BME280;2870;42.680;23.364;2023-06-22T09:29:43;95554.72;;;32.13;43.03
5691;BME280;2870;42.680;23.364;2023-06-22T09:32:10;95563.41;;;32.13;43.33
5691;BME280;2870;42.680;23.364;2023-06-22T09:34:37;95554.19;;;32.69;42.32
5691;BME280;2870;42.680;23.364;2023-06-22T09:37:05;95559.81;;;32.57;43.20
5691;BME280;2870;42.680;23.364;2023-06-22T09:39:31;95565.47;;;33.48;41.95
5691;BME280;2870;42.680;23.364;2023-06-22T09:41:59;95555.03;;;33.29;42.66
5691;BME280;2870;42.680;23.364;2023-06-22T09:44:27;95548.38;;;33.81;41.03
5691;BME280;2870;42.680;23.364;2023-06-22T09:46:54;95558.38;;;33.63;39.83
5691;BME280;2870;42.680;23.364;2023-06-22T09:49:21;95554.28;;;33.89;40.42
5691;BME280;2870;42.680;23.364;2023-06-22T09:51:48;95547.59;;;33.17;39.02
5691;BME280;2870;42.680;23.364;2023-06-22T09:54:16;95542.88;;;32.88;38.21
5691;BME280;2870;42.680;23.364;2023-06-22T09:56:43;95537.94;;;33.55;38.53
5691;BME280;2870;42.680;23.364;2023-06-22T09:59:09;95541.44;;;34.14;39.00
5691;BME280;2870;42.680;23.364;2023-06-22T10:01:38;95549.81;;;34.52;37.99
5691;BME280;2870;42.680;23.364;2023-06-22T10:04:04;95540.72;;;34.12;38.45
5691;BME280;2870;42.680;23.364;2023-06-22T10:06:31;95541.09;;;34.57;36.46
5691;BME280;2870;42.680;23.364;2023-06-22T10:08:59;95534.38;;;34.38;36.64
5691;BME280;2870;42.680;23.364;2023-06-22T10:11:26;95535.09;;;34.36;36.10
5691;BME280;2870;42.680;23.364;2023-06-22T10:13:55;95530.25;;;34.69;35.89
5691;BME280;2870;42.680;23.364;2023-06-22T10:16:24;95525.53;;;34.21;37.03
5691;BME280;2870;42.680;23.364;2023-06-22T10:18:53;95531.72;;;34.68;35.47
5691;BME280;2870;42.680;23.364;2023-06-22T10:21:20;95529.50;;;34.61;34.73
5691;BME280;2870;42.680;23.364;2023-06-22T10:23:47;95524.53;;;34.86;33.93
5691;BME280;2870;42.680;23.364;2023-06-22T10:26:13;95523.03;;;34.74;34.66
5691;BME280;2870;42.680;23.364;2023-06-22T10:28:40;95523.31;;;35.25;33.08
5691;BME280;2870;42.680;23.364;2023-06-22T10:31:07;95516.44;;;33.87;37.28
5691;BME280;2870;42.680;23.364;2023-06-22T10:33:34;95519.03;;;34.31;35.88
5691;BME280;2870;42.680;23.364;2023-06-22T10:36:03;95525.94;;;34.74;38.03
5691;BME280;2870;42.680;23.364;2023-06-22T10:38:30;95522.59;;;35.33;32.60
5691;BME280;2870;42.680;23.364;2023-06-22T10:40:56;95514.75;;;35.72;32.30
5691;BME280;2870;42.680;23.364;2023-06-22T10:43:23;95507.88;;;34.96;33.41
5691;BME280;2870;42.680;23.364;2023-06-22T10:45:50;95497.44;;;34.63;34.31
5691;BME280;2870;42.680;23.364;2023-06-22T10:48:16;95511.53;;;35.05;35.53
5691;BME280;2870;42.680;23.364;2023-06-22T10:50:43;95497.78;;;34.14;35.69
5691;BME280;2870;42.680;23.364;2023-06-22T10:53:12;95494.75;;;34.00;38.36
5691;BME280;2870;42.680;23.364;2023-06-22T10:55:39;95498.19;;;34.61;36.45
5691;BME280;2870;42.680;23.364;2023-06-22T10:58:05;95495.00;;;34.26;36.44
5691;BME280;2870;42.680;23.364;2023-06-22T11:00:32;95497.56;;;33.90;36.10
5691;BME280;2870;42.680;23.364;2023-06-22T11:02:59;95492.88;;;32.97;37.24
5691;BME280;2870;42.680;23.364;2023-06-22T11:05:26;95482.06;;;33.06;35.86
5691;BME280;2870;42.680;23.364;2023-06-22T11:07:52;95486.97;;;33.48;35.85
5691;BME280;2870;42.680;23.364;2023-06-22T11:10:21;95493.47;;;32.90;36.18
5691;BME280;2870;42.680;23.364;2023-06-22T11:12:47;95490.44;;;32.80;35.79
5691;BME280;2870;42.680;23.364;2023-06-22T11:15:15;95480.00;;;32.60;37.29
5691;BME280;2870;42.680;23.364;2023-06-22T11:17:42;95492.16;;;32.99;36.98
5691;BME280;2870;42.680;23.364;2023-06-22T11:20:09;95478.00;;;32.27;38.27
5691;BME280;2870;42.680;23.364;2023-06-22T11:22:37;95475.09;;;32.25;38.36
5691;BME280;2870;42.680;23.364;2023-06-22T11:25:05;95472.81;;;32.67;37.68
5691;BME280;2870;42.680;23.364;2023-06-22T11:27:33;95467.63;;;32.60;37.47
5691;BME280;2870;42.680;23.364;2023-06-22T11:30:01;95471.41;;;32.70;38.03
5691;BME280;2870;42.680;23.364;2023-06-22T11:32:28;95457.94;;;32.41;37.75
5691;BME280;2870;42.680;23.364;2023-06-22T11:34:55;95459.41;;;32.94;37.86
5691;BME280;2870;42.680;23.364;2023-06-22T11:37:22;95462.41;;;32.48;37.27
5691;BME280;2870;42.680;23.364;2023-06-22T11:39:49;95463.94;;;32.09;38.27
5691;BME280;2870;42.680;23.364;2023-06-22T11:42:15;95466.56;;;32.35;38.39
5691;BME280;2870;42.680;23.364;2023-06-22T11:44:43;95469.41;;;32.33;37.91
5691;BME280;2870;42.680;23.364;2023-06-22T11:47:10;95451.13;;;32.24;37.37
5691;BME280;2870;42.680;23.364;2023-06-22T11:49:37;95459.41;;;32.42;38.63
5691;BME280;2870;42.680;23.364;2023-06-22T11:52:04;95453.84;;;32.58;37.86
5691;BME280;2870;42.680;23.364;2023-06-22T11:54:31;95437.34;;;32.23;37.96
5691;BME280;2870;42.680;23.364;2023-06-22T11:56:58;95438.75;;;32.22;39.06
5691;BME280;2870;42.680;23.364;2023-06-22T11:59:24;95439.00;;;32.36;38.43
5691;BME280;2870;42.680;23.364;2023-06-22T12:01:53;95441.97;;;32.40;38.41
5691;BME280;2870;42.680;23.364;2023-06-22T12:04:20;95447.16;;;32.48;38.89
5691;BME280;2870;42.680;23.364;2023-06-22T12:06:47;95450.31;;;32.17;36.76
5691;BME280;2870;42.680;23.364;2023-06-22T12:09:14;95452.38;;;32.57;39.44
5691;BME280;2870;42.680;23.364;2023-06-22T12:11:42;95458.41;;;32.74;40.64
5691;BME280;2870;42.680;23.364;2023-06-22T12:14:09;95451.22;;;32.30;38.94
5691;BME280;2870;42.680;23.364;2023-06-22T12:16:36;95454.97;;;31.92;40.38
5691;BME280;2870;42.680;23.364;2023-06-22T12:19:05;95467.19;;;31.47;41.02
5691;BME280;2870;42.680;23.364;2023-06-22T12:21:32;95466.44;;;30.74;43.33
5691;BME280;2870;42.680;23.364;2023-06-22T12:23:59;95419.34;;;29.49;45.72
5691;BME280;2870;42.680;23.364;2023-06-22T12:26:26;95457.44;;;29.41;46.18
5691;BME280;2870;42.680;23.364;2023-06-22T12:28:52;95461.97;;;29.48;46.12
5691;BME280;2870;42.680;23.364;2023-06-22T12:31:19;95477.50;;;29.61;48.38
5691;BME280;2870;42.680;23.364;2023-06-22T12:33:46;95489.03;;;29.33;50.64
5691;BME280;2870;42.680;23.364;2023-06-22T12:36:14;95490.94;;;29.50;49.73
5691;BME280;2870;42.680;23.364;2023-06-22T12:38:42;95475.41;;;29.64;49.73
5691;BME280;2870;42.680;23.364;2023-06-22T12:41:08;95488.66;;;29.73;48.28
5691;BME280;2870;42.680;23.364;2023-06-22T12:43:35;95490.69;;;29.68;49.45
5691;BME280;2870;42.680;23.364;2023-06-22T12:46:02;95493.66;;;29.44;51.71
5691;BME280;2870;42.680;23.364;2023-06-22T12:48:29;95488.03;;;29.50;52.44
5691;BME280;2870;42.680;23.364;2023-06-22T12:50:55;95496.44;;;29.40;53.31
5691;BME280;2870;42.680;23.364;2023-06-22T12:53:23;95507.50;;;29.22;54.23
5691;BME280;2870;42.680;23.364;2023-06-22T12:55:52;95519.81;;;28.50;57.47
5691;BME280;2870;42.680;23.364;2023-06-22T12:58:19;95517.56;;;27.81;61.09
5691;BME280;2870;42.680;23.364;2023-06-22T13:00:46;95524.50;;;27.96;60.27
5691;BME280;2870;42.680;23.364;2023-06-22T13:03:13;95516.00;;;27.36;64.17
5691;BME280;2870;42.680;23.364;2023-06-22T13:05:40;95525.47;;;27.19;70.17
5691;BME280;2870;42.680;23.364;2023-06-22T13:08:08;95523.50;;;26.86;72.20
5691;BME280;2870;42.680;23.364;2023-06-22T13:10:37;95515.84;;;27.32;72.06
5691;BME280;2870;42.680;23.364;2023-06-22T13:13:04;95513.09;;;27.16;68.80
5691;BME280;2870;42.680;23.364;2023-06-22T13:15:31;95509.88;;;27.06;69.82